createdAt,value
2023-03-06T00:00:56.780Z,3.15
2023-03-06T00:03:26.069Z,3.12
2023-03-06T00:05:56.470Z,3.07
2023-03-06T00:08:24.148Z,3.05
2023-03-06T00:10:50.828Z,3.05
2023-03-06T00:13:20.519Z,3.02
2023-03-06T00:15:51.276Z,2.98
2023-03-06T00:18:20.498Z,2.94
2023-03-06T00:20:51.481Z,2.91
2023-03-06T00:23:22.023Z,2.91
2023-03-06T00:25:48.755Z,2.88
2023-03-06T00:28:16.137Z,2.87
2023-03-06T00:30:43.343Z,2.87
2023-03-06T00:33:11.820Z,2.87
2023-03-06T00:35:40.802Z,2.86
2023-03-06T00:38:08.210Z,2.86
2023-03-06T00:40:34.813Z,2.85
2023-03-06T00:43:02.369Z,2.87
2023-03-06T00:45:29.298Z,2.91
2023-03-06T00:47:57.953Z,2.92
2023-03-06T00:50:25.639Z,2.88
2023-03-06T00:52:52.210Z,2.85
2023-03-06T00:55:19.032Z,2.84
2023-03-06T00:57:47.175Z,2.81
2023-03-06T01:00:17.378Z,2.80
2023-03-06T01:02:43.932Z,2.80
2023-03-06T01:05:13.371Z,2.78
2023-03-06T01:07:40.057Z,2.79
2023-03-06T01:10:08.264Z,2.81
2023-03-06T01:12:36.422Z,2.81
2023-03-06T01:15:03.886Z,2.79
2023-03-06T01:17:31.804Z,2.75
2023-03-06T01:19:59.407Z,2.74
2023-03-06T01:22:26.592Z,2.73
2023-03-06T01:24:53.215Z,2.73
2023-03-06T01:27:19.718Z,2.75
2023-03-06T01:29:46.341Z,2.71
2023-03-06T01:32:13.062Z,2.69
2023-03-06T01:34:39.976Z,2.67
2023-03-06T01:37:06.654Z,2.67
2023-03-06T01:39:40.380Z,2.65
2023-03-06T01:42:07.549Z,2.63
2023-03-06T01:44:35.042Z,2.62
2023-03-06T01:47:02.446Z,2.65
2023-03-06T01:49:37.193Z,2.63
2023-03-06T01:52:05.329Z,2.61
2023-03-06T01:54:35.736Z,2.61
2023-03-06T01:57:09.567Z,2.64
2023-03-06T01:59:37.300Z,2.62
2023-03-06T02:02:06.440Z,2.62
2023-03-06T02:04:33.831Z,2.60
2023-03-06T02:07:07.430Z,2.55
2023-03-06T02:09:36.152Z,2.54
2023-03-06T02:12:08.746Z,2.50
2023-03-06T02:14:37.184Z,2.51
2023-03-06T02:17:06.940Z,2.48
2023-03-06T02:20:13.393Z,2.44
2023-03-06T02:22:51.177Z,2.39
2023-03-06T02:25:30.927Z,2.37
2023-03-06T02:27:58.150Z,2.39
2023-03-06T02:30:28.378Z,2.38
2023-03-06T02:32:55.656Z,2.35
2023-03-06T02:35:26.441Z,2.34
2023-03-06T02:37:54.224Z,2.36
2023-03-06T02:40:23.784Z,2.38
2023-03-06T02:42:56.770Z,2.36
2023-03-06T02:45:36.012Z,2.35
2023-03-06T02:48:03.450Z,2.37
2023-03-06T02:50:30.625Z,2.38
2023-03-06T02:52:57.550Z,2.40
2023-03-06T02:55:24.908Z,2.42
2023-03-06T02:57:51.833Z,2.41
2023-03-06T03:00:19.135Z,2.40
2023-03-06T03:02:47.793Z,2.43
2023-03-06T03:05:16.359Z,2.47
2023-03-06T03:07:43.083Z,2.48
2023-03-06T03:10:10.381Z,2.45
2023-03-06T03:12:37.084Z,2.49
2023-03-06T03:15:06.017Z,2.55
2023-03-06T03:17:37.283Z,2.53
2023-03-06T03:20:05.897Z,2.54
2023-03-06T03:22:32.561Z,2.55
2023-03-06T03:25:02.741Z,2.56
2023-03-06T03:27:30.691Z,2.59
2023-03-06T03:29:59.186Z,2.61
2023-03-06T03:32:28.677Z,2.62
2023-03-06T03:34:56.364Z,2.65
2023-03-06T03:37:23.202Z,2.65
2023-03-06T03:39:49.843Z,2.69
2023-03-06T03:42:16.432Z,2.67
2023-03-06T03:44:42.972Z,2.69
2023-03-06T03:47:10.353Z,2.73
2023-03-06T03:49:36.922Z,2.76
2023-03-06T03:52:05.151Z,2.77
2023-03-06T03:54:31.681Z,2.79
2023-03-06T03:56:58.447Z,2.81
2023-03-06T03:59:25.188Z,2.77
2023-03-06T04:01:52.528Z,2.74
2023-03-06T04:04:19.323Z,2.77
2023-03-06T04:06:45.944Z,2.75
2023-03-06T04:09:12.588Z,2.77
2023-03-06T04:11:39.164Z,2.83
2023-03-06T04:14:08.252Z,2.88
2023-03-06T04:16:34.974Z,2.87
2023-03-06T04:19:01.640Z,2.89
2023-03-06T04:21:28.481Z,2.92
2023-03-06T04:23:55.346Z,2.93
2023-03-06T04:26:21.914Z,2.93
2023-03-06T04:28:48.588Z,2.95
2023-03-06T04:31:15.844Z,2.96
2023-03-06T04:33:42.785Z,2.93
2023-03-06T04:36:24.300Z,2.97
2023-03-06T04:38:51.517Z,2.95
2023-03-06T04:41:18.140Z,2.92
2023-03-06T04:43:46.375Z,2.94
2023-03-06T04:46:13.101Z,2.93
2023-03-06T04:48:41.777Z,2.90
2023-03-06T04:51:09.540Z,2.91
2023-03-06T04:53:36.348Z,2.91
2023-03-06T04:56:03.964Z,2.90
2023-03-06T04:58:30.775Z,2.89
2023-03-06T05:00:57.498Z,2.91
2023-03-06T05:03:24.120Z,2.94
2023-03-06T05:05:50.821Z,2.97
2023-03-06T05:08:19.566Z,2.99
2023-03-06T05:10:46.307Z,3.02
2023-03-06T05:13:13.081Z,3.05
2023-03-06T05:15:41.113Z,3.07
2023-03-06T05:18:08.021Z,3.07
2023-03-06T05:20:35.914Z,3.10
2023-03-06T05:23:02.559Z,3.11
2023-03-06T05:25:29.530Z,3.14
2023-03-06T05:27:56.399Z,3.16
2023-03-06T05:30:23.511Z,3.14
2023-03-06T05:32:50.847Z,3.12
2023-03-06T05:35:20.377Z,3.11
2023-03-06T05:37:48.483Z,3.13
2023-03-06T05:40:17.359Z,3.14
2023-03-06T05:42:44.163Z,3.14
2023-03-06T05:45:11.398Z,3.17
2023-03-06T05:47:38.133Z,3.17
2023-03-06T05:50:08.196Z,3.15
2023-03-06T05:52:37.260Z,3.13
2023-03-06T05:55:04.043Z,3.13
2023-03-06T05:57:30.698Z,3.13
2023-03-06T05:59:57.314Z,3.11
2023-03-06T06:02:26.005Z,3.09
2023-03-06T06:04:53.104Z,3.10
2023-03-06T06:07:19.681Z,3.09
2023-03-06T06:09:52.991Z,3.08
2023-03-06T06:12:19.931Z,3.07
2023-03-06T06:14:48.692Z,3.06
2023-03-06T06:17:17.051Z,3.06
2023-03-06T06:19:45.799Z,3.09
2023-03-06T06:22:12.809Z,3.11
2023-03-06T06:24:39.583Z,3.14
2023-03-06T06:27:09.576Z,3.16
2023-03-06T06:29:39.194Z,3.13
2023-03-06T06:32:07.117Z,3.15
2023-03-06T06:34:34.203Z,3.18
2023-03-06T06:37:01.943Z,3.20
2023-03-06T06:39:29.559Z,3.23
2023-03-06T06:42:14.690Z,3.25
2023-03-06T06:44:42.734Z,3.29
2023-03-06T06:47:25.928Z,3.30
2023-03-06T06:49:54.968Z,3.33
2023-03-06T06:52:22.421Z,3.36
2023-03-06T06:54:48.977Z,3.40
2023-03-06T06:57:16.294Z,3.40
2023-03-06T06:59:43.084Z,3.42
2023-03-06T07:02:14.656Z,3.40
2023-03-06T07:05:00.184Z,3.43
2023-03-06T07:07:30.084Z,3.45
2023-03-06T07:09:57.910Z,3.48
2023-03-06T07:12:25.782Z,3.51
2023-03-06T07:14:52.356Z,3.52
2023-03-06T07:17:18.889Z,3.52
2023-03-06T07:19:46.502Z,3.54
2023-03-06T07:22:13.265Z,3.58
2023-03-06T07:24:40.855Z,3.58
2023-03-06T07:27:07.554Z,3.65
2023-03-06T07:29:34.843Z,3.69
2023-03-06T07:32:01.722Z,3.71
2023-03-06T07:34:28.431Z,3.75
2023-03-06T07:36:55.340Z,3.79
2023-03-06T07:39:21.974Z,3.83
2023-03-06T07:41:48.655Z,3.87
2023-03-06T07:44:15.245Z,3.93
2023-03-06T07:46:45.514Z,3.95
2023-03-06T07:49:12.150Z,3.99
2023-03-06T07:51:40.120Z,4.02
2023-03-06T07:54:08.409Z,4.10
2023-03-06T07:56:37.106Z,4.17
2023-03-06T07:59:04.027Z,4.24
2023-03-06T08:01:31.723Z,4.30
2023-03-06T08:04:02.126Z,4.30
2023-03-06T08:06:30.209Z,4.37
2023-03-06T08:08:57.138Z,4.40
2023-03-06T08:11:26.540Z,4.35
2023-03-06T08:14:02.242Z,4.40
2023-03-06T08:16:31.833Z,4.41
2023-03-06T08:18:58.547Z,4.36
2023-03-06T08:21:27.457Z,4.31
2023-03-06T08:23:54.440Z,4.35
2023-03-06T08:26:29.120Z,4.36
2023-03-06T08:28:59.736Z,4.37
2023-03-06T08:31:28.282Z,4.38
2023-03-06T08:33:56.545Z,4.41
2023-03-06T08:36:27.048Z,4.39
2023-03-06T08:38:54.823Z,4.41
2023-03-06T08:41:22.054Z,4.45
2023-03-06T08:43:49.807Z,4.49
2023-03-06T08:46:18.907Z,4.52
2023-03-06T08:48:47.835Z,4.57
2023-03-06T08:51:15.396Z,4.66
2023-03-06T08:53:44.242Z,4.65
2023-03-06T08:56:18.678Z,4.74
2023-03-06T08:58:45.373Z,4.78
2023-03-06T09:01:16.955Z,4.80
2023-03-06T09:03:43.759Z,4.83
2023-03-06T09:06:10.594Z,4.86
2023-03-06T09:08:37.427Z,4.90
2023-03-06T09:11:04.707Z,4.98
2023-03-06T09:13:36.735Z,5.02
2023-03-06T09:16:05.423Z,5.04
2023-03-06T09:18:32.140Z,5.06
2023-03-06T09:21:00.872Z,5.11
2023-03-06T09:23:28.005Z,5.08
2023-03-06T09:25:58.633Z,5.09
2023-03-06T09:28:25.849Z,5.11
2023-03-06T09:30:53.980Z,5.21
2023-03-06T09:33:21.491Z,5.31
2023-03-06T09:35:55.014Z,5.37
2023-03-06T09:38:25.227Z,5.45
2023-03-06T09:41:17.689Z,5.49
2023-03-06T09:43:52.084Z,5.53
2023-03-06T09:46:33.777Z,5.54
2023-03-06T09:49:31.957Z,5.48
2023-03-06T09:52:29.346Z,5.51
2023-03-06T09:55:00.176Z,5.57
2023-03-06T09:57:32.239Z,5.53
2023-03-06T10:00:05.750Z,5.54
2023-03-06T10:02:46.813Z,5.61
2023-03-06T10:05:21.595Z,5.62
2023-03-06T10:07:57.814Z,5.71
2023-03-06T10:10:27.659Z,5.77
2023-03-06T10:13:06.627Z,5.81
2023-03-06T10:15:36.206Z,5.88
2023-03-06T10:18:04.462Z,5.96
2023-03-06T10:20:47.558Z,6.05
2023-03-06T10:23:31.351Z,6.08
2023-03-06T10:26:07.629Z,6.10
2023-03-06T10:28:41.858Z,6.08
2023-03-06T10:31:16.752Z,6.19
2023-03-06T10:34:07.890Z,6.33
2023-03-06T10:36:34.479Z,6.39
2023-03-06T10:39:09.742Z,6.42
2023-03-06T10:41:38.288Z,6.51
2023-03-06T10:44:04.852Z,6.56
2023-03-06T10:46:46.988Z,6.61
2023-03-06T10:49:34.518Z,6.61
2023-03-06T10:52:03.976Z,6.53
2023-03-06T10:54:33.836Z,6.48
2023-03-06T10:57:20.626Z,6.61
2023-03-06T10:59:53.671Z,6.76
2023-03-06T11:02:29.568Z,6.82
2023-03-06T11:04:58.447Z,6.92
2023-03-06T11:07:29.044Z,6.90
2023-03-06T11:09:56.610Z,6.77
2023-03-06T11:12:25.822Z,6.76
2023-03-06T11:15:21.358Z,6.76
2023-03-06T11:17:56.570Z,6.90
2023-03-06T11:20:27.801Z,7.00
2023-03-06T11:29:49.675Z,6.91
2023-03-06T11:32:27.883Z,6.95
2023-03-06T11:35:00.267Z,7.05
2023-03-06T11:37:47.208Z,7.15
2023-03-06T11:40:27.440Z,7.15
2023-03-06T11:43:04.085Z,7.15
2023-03-06T11:45:47.859Z,7.11
2023-03-06T11:51:07.062Z,7.30
2023-03-06T11:53:44.248Z,7.32
2023-03-06T11:56:25.780Z,7.43
2023-03-06T11:59:04.683Z,7.51
2023-03-06T12:02:11.287Z,7.50
2023-03-06T12:11:42.223Z,7.32
2023-03-06T12:14:16.470Z,7.14
2023-03-06T12:16:45.544Z,7.21
2023-03-06T12:19:48.717Z,7.22
2023-03-06T12:22:33.893Z,7.27
2023-03-06T12:25:36.722Z,7.34
2023-03-06T12:28:16.778Z,7.31
2023-03-06T12:31:05.965Z,7.39
2023-03-06T12:34:01.691Z,7.41
2023-03-06T12:36:48.990Z,7.43
2023-03-06T12:39:26.061Z,7.40
2023-03-06T12:42:00.292Z,7.41
2023-03-06T12:44:49.590Z,7.44
2023-03-06T12:47:22.413Z,7.47
2023-03-06T12:49:57.198Z,7.43
2023-03-06T12:52:32.849Z,7.46
2023-03-06T12:55:04.806Z,7.39
2023-03-06T12:57:37.355Z,7.42
2023-03-06T13:00:06.995Z,7.46
2023-03-06T13:02:45.898Z,7.49
2023-03-06T13:05:24.308Z,7.57
2023-03-06T13:08:14.982Z,7.58
2023-03-06T13:10:47.230Z,7.61
2023-03-06T13:13:36.862Z,7.65
2023-03-06T13:16:12.031Z,7.66
2023-03-06T13:18:38.629Z,7.67
2023-03-06T13:21:26.502Z,7.66
2023-03-06T13:24:06.743Z,7.68
2023-03-06T13:26:39.464Z,7.65
2023-03-06T13:29:35.857Z,7.53
2023-03-06T13:32:02.409Z,7.61
2023-03-06T13:34:35.150Z,7.69
2023-03-06T13:37:16.240Z,7.77
2023-03-06T13:39:57.665Z,7.78
2023-03-06T13:42:31.191Z,7.78
2023-03-06T13:45:07.580Z,7.78
2023-03-06T13:48:06.526Z,7.75
2023-03-06T13:50:38.766Z,7.68
2023-03-06T13:53:40.736Z,7.70
2023-03-06T13:56:26.978Z,7.72
2023-03-06T13:59:00.631Z,7.68
2023-03-06T14:01:35.688Z,7.67
2023-03-06T14:04:36.213Z,7.63
2023-03-06T14:07:29.764Z,7.59
2023-03-06T14:09:59.630Z,7.62
2023-03-06T14:12:33.329Z,7.62
2023-03-06T14:15:09.023Z,7.64
2023-03-06T14:17:39.328Z,7.62
2023-03-06T14:20:16.683Z,7.61
2023-03-06T14:22:43.616Z,7.60
2023-03-06T14:25:34.583Z,7.53
2023-03-06T14:28:15.770Z,7.51
2023-03-06T14:30:50.331Z,7.45
2023-03-06T14:33:29.355Z,7.35
2023-03-06T14:35:59.626Z,7.25
2023-03-06T14:38:28.809Z,7.21
2023-03-06T14:40:57.532Z,7.20
2023-03-06T14:43:27.809Z,7.15
2023-03-06T14:46:01.683Z,7.17
2023-03-06T14:48:46.183Z,7.19
2023-03-06T14:51:17.239Z,7.15
2023-03-06T14:53:45.725Z,7.06
2023-03-06T14:56:17.862Z,7.04
2023-03-06T14:58:51.727Z,7.10
2023-03-06T15:01:27.242Z,7.09
2023-03-06T15:03:58.973Z,7.03
2023-03-06T15:06:31.224Z,6.93
2023-03-06T15:09:15.497Z,6.71
2023-03-06T15:11:54.003Z,6.57
2023-03-06T15:14:28.351Z,6.61
2023-03-06T15:16:55.090Z,6.68
2023-03-06T15:19:22.739Z,6.72
2023-03-06T15:21:51.967Z,6.68
2023-03-06T15:24:33.424Z,6.62
2023-03-06T15:27:03.807Z,6.60
2023-03-06T15:29:31.116Z,6.58
2023-03-06T15:32:31.258Z,6.58
2023-03-06T15:35:30.087Z,6.61
2023-03-06T15:37:57.881Z,6.54
2023-03-06T15:40:27.425Z,6.51
2023-03-06T15:42:55.425Z,6.55
2023-03-06T15:45:25.082Z,6.54
2023-03-06T15:47:54.560Z,6.57
2023-03-06T15:50:26.917Z,6.54
2023-03-06T15:52:55.995Z,6.52
2023-03-06T15:55:26.043Z,6.49
2023-03-06T15:57:59.575Z,6.52
2023-03-06T16:00:28.836Z,6.54
2023-03-06T16:02:57.135Z,6.48
2023-03-06T16:05:25.374Z,6.44
2023-03-06T16:07:53.564Z,6.32
2023-03-06T16:10:22.719Z,6.27
2023-03-06T16:12:54.467Z,6.19
2023-03-06T16:15:30.015Z,6.13
2023-03-06T16:17:57.871Z,6.09
2023-03-06T16:20:35.796Z,5.99
2023-03-06T16:23:12.078Z,5.89
2023-03-06T16:31:41.940Z,5.53
2023-03-06T16:34:15.635Z,5.39
2023-03-06T16:36:45.840Z,5.40
2023-03-06T16:42:12.740Z,5.39
2023-03-06T16:44:41.584Z,5.42
2023-03-06T16:50:01.558Z,5.36
2023-03-06T16:52:28.840Z,5.36
2023-03-06T16:54:56.456Z,5.38
2023-03-06T16:57:31.842Z,5.37
2023-03-06T17:00:02.094Z,5.30
2023-03-06T17:02:28.999Z,5.29
2023-03-06T17:05:00.644Z,5.27
2023-03-06T17:07:29.842Z,5.24
2023-03-06T17:09:58.663Z,5.26
2023-03-06T17:12:33.071Z,5.27
2023-03-06T17:14:59.836Z,5.22
2023-03-06T17:17:27.154Z,5.22
2023-03-06T17:19:56.323Z,5.22
2023-03-06T17:22:24.402Z,5.25
2023-03-06T17:24:52.288Z,5.24
2023-03-06T17:30:05.465Z,5.17
2023-03-06T17:32:38.569Z,5.15
2023-03-06T17:35:06.901Z,5.09
2023-03-06T17:37:34.935Z,5.14
2023-03-06T17:40:02.979Z,5.15
2023-03-06T17:42:30.156Z,5.13
2023-03-06T17:45:00.266Z,5.08
2023-03-06T17:47:34.046Z,5.10
2023-03-06T17:50:01.598Z,5.09
2023-03-06T17:52:31.612Z,5.06
2023-03-06T17:55:05.699Z,5.02
2023-03-06T17:57:33.957Z,5.02
2023-03-06T18:00:00.777Z,5.00
2023-03-06T18:02:27.534Z,5.01
2023-03-06T18:05:06.180Z,4.96
2023-03-06T18:07:38.382Z,4.97
2023-03-06T18:10:07.210Z,4.94
2023-03-06T18:12:34.583Z,4.94
2023-03-06T18:15:02.248Z,4.93
2023-03-06T18:17:39.281Z,4.93
2023-03-06T18:20:10.429Z,4.86
2023-03-06T18:22:39.593Z,4.86
2023-03-06T18:25:15.773Z,4.87
2023-03-06T18:27:43.509Z,4.87
2023-03-06T18:30:13.647Z,4.81
2023-03-06T18:32:40.971Z,4.77
2023-03-06T18:35:09.620Z,4.78
2023-03-06T18:37:36.160Z,4.79
2023-03-06T18:40:02.898Z,4.77
2023-03-06T18:42:30.438Z,4.76
2023-03-06T18:44:57.210Z,4.76
2023-03-06T18:47:24.971Z,4.76
2023-03-06T18:49:51.545Z,4.76
2023-03-06T18:52:18.238Z,4.74
2023-03-06T18:54:46.207Z,4.66
2023-03-06T18:57:12.788Z,4.65
2023-03-06T18:59:39.397Z,4.66
2023-03-06T19:02:05.985Z,4.67
2023-03-06T19:04:32.617Z,4.66
2023-03-06T19:06:59.260Z,4.67
2023-03-06T19:09:25.908Z,4.60
2023-03-06T19:11:54.812Z,4.61
2023-03-06T19:14:21.641Z,4.56
2023-03-06T19:16:48.365Z,4.54
2023-03-06T19:19:15.221Z,4.53
2023-03-06T19:21:41.724Z,4.54
2023-03-06T19:24:14.297Z,4.53
2023-03-06T19:26:41.961Z,4.51
2023-03-06T19:29:08.710Z,4.50
2023-03-06T19:31:35.548Z,4.50
2023-03-06T19:34:02.127Z,4.49
2023-03-06T19:36:33.616Z,4.48
2023-03-06T19:39:03.121Z,4.49
2023-03-06T19:41:29.796Z,4.49
2023-03-06T19:44:03.396Z,4.52
2023-03-06T19:46:32.013Z,4.49
2023-03-06T19:49:01.054Z,4.43
2023-03-06T19:51:28.649Z,4.45
2023-03-06T19:53:56.332Z,4.43
2023-03-06T19:56:26.089Z,4.41
2023-03-06T19:58:53.202Z,4.38
2023-03-06T20:15:43.325Z,4.42
2023-03-06T20:18:15.640Z,4.44
2023-03-06T20:21:03.021Z,4.44
2023-03-06T20:23:32.511Z,4.46
2023-03-06T20:26:06.987Z,4.46
2023-03-06T20:28:39.137Z,4.48
2023-03-06T20:31:13.488Z,4.46
2023-03-06T20:33:40.490Z,4.49
2023-03-06T20:39:04.359Z,4.43
2023-03-06T20:41:45.092Z,4.45
2023-03-06T20:44:19.551Z,4.54
2023-03-06T20:49:37.682Z,4.56
2023-03-06T20:52:04.950Z,4.55
2023-03-06T20:54:35.719Z,4.61
2023-03-06T20:57:07.643Z,4.62
2023-03-06T20:59:42.801Z,4.62
2023-03-06T21:04:56.199Z,4.61
2023-03-06T21:07:28.392Z,4.66
2023-03-06T21:09:57.262Z,4.67
2023-03-06T21:12:27.354Z,4.64
2023-03-06T21:14:54.522Z,4.65
2023-03-06T21:17:28.461Z,4.66
2023-03-06T21:19:56.253Z,4.70
2023-03-06T21:22:25.506Z,4.72
2023-03-06T21:24:55.645Z,4.73
2023-03-06T21:35:39.251Z,4.74
2023-03-06T21:38:11.264Z,4.79
2023-03-06T21:40:40.362Z,4.80
2023-03-06T21:43:34.210Z,4.79
2023-03-06T21:46:00.500Z,4.76
2023-03-06T22:05:33.100Z,4.81
2023-03-06T22:10:55.651Z,4.84
2023-03-06T22:13:26.341Z,4.83
2023-03-06T22:15:59.694Z,4.85
2023-03-06T22:18:30.064Z,4.86
2023-03-06T22:21:09.967Z,4.87
2023-03-06T22:23:48.692Z,4.86
2023-03-06T22:37:25.286Z,4.88
2023-03-06T22:39:59.064Z,4.88
2023-03-06T22:50:52.369Z,4.82
2023-03-06T22:53:23.551Z,4.77
2023-03-06T22:55:52.236Z,4.78
2023-03-06T23:04:18.960Z,4.81
2023-03-06T23:12:37.982Z,4.85
2023-03-06T23:15:31.807Z,4.86
2023-03-06T23:18:23.819Z,4.83
2023-03-06T23:20:52.619Z,4.79
2023-03-06T23:26:31.354Z,4.83
2023-03-06T23:29:04.952Z,4.83
2023-03-06T23:31:55.321Z,4.83
2023-03-06T23:37:52.442Z,4.84
2023-03-06T23:40:22.353Z,4.79
2023-03-06T23:45:36.956Z,4.81
2023-03-06T23:48:46.685Z,4.81
2023-03-06T23:51:19.084Z,4.83
2023-03-06T23:56:30.360Z,4.86
